sensor_id;sensor_type;location;lat;lon;timestamp;temperature;humidity
21518;DHT22;61765;45.794;24.150;2022-09-03T00:01:00;20.50;95.00
21518;DHT22;61765;45.794;24.150;2022-09-03T00:09:14;20.80;95.00
21518;DHT22;61765;45.794;24.150;2022-09-03T00:17:24;20.70;95.00
21518;DHT22;61765;45.794;24.150;2022-09-03T00:25:38;20.60;95.10
21518;DHT22;61765;45.794;24.150;2022-09-03T00:33:45;20.90;95.10
21518;DHT22;61765;45.794;24.150;2022-09-03T00:42:08;21.00;94.80
21518;DHT22;61765;45.794;24.150;2022-09-03T00:50:21;21.00;94.80
21518;DHT22;61765;45.794;24.150;2022-09-03T00:58:46;20.80;95.00
21518;DHT22;61765;45.794;24.150;2022-09-03T01:07:04;21.20;94.70
21518;DHT22;61765;45.794;24.150;2022-09-03T01:15:22;20.90;94.90
21518;DHT22;61765;45.794;24.150;2022-09-03T01:23:54;20.90;94.70
21518;DHT22;61765;45.794;24.150;2022-09-03T01:32:07;20.60;95.10
21518;DHT22;61765;45.794;24.150;2022-09-03T01:40:20;20.80;94.90
21518;DHT22;61765;45.794;24.150;2022-09-03T01:48:47;21.00;94.70
21518;DHT22;61765;45.794;24.150;2022-09-03T01:57:13;20.80;94.40
21518;DHT22;61765;45.794;24.150;2022-09-03T02:05:40;20.90;94.50
21518;DHT22;61765;45.794;24.150;2022-09-03T02:13:51;20.50;94.70
21518;DHT22;61765;45.794;24.150;2022-09-03T02:21:59;20.40;94.80
21518;DHT22;61765;45.794;24.150;2022-09-03T02:30:07;20.40;95.00
21518;DHT22;61765;45.794;24.150;2022-09-03T02:38:17;20.40;95.10
21518;DHT22;61765;45.794;24.150;2022-09-03T02:46:24;20.40;95.00
21518;DHT22;61765;45.794;24.150;2022-09-03T02:54:35;20.40;95.00
21518;DHT22;61765;45.794;24.150;2022-09-03T03:02:41;20.20;95.60
21518;DHT22;61765;45.794;24.150;2022-09-03T03:10:51;20.20;95.50
21518;DHT22;61765;45.794;24.150;2022-09-03T03:18:58;20.60;95.10
21518;DHT22;61765;45.794;24.150;2022-09-03T03:27:06;20.70;95.00
21518;DHT22;61765;45.794;24.150;2022-09-03T03:35:12;20.50;95.20
21518;DHT22;61765;45.794;24.150;2022-09-03T03:43:20;20.60;95.20
21518;DHT22;61765;45.794;24.150;2022-09-03T03:51:26;20.60;94.70
21518;DHT22;61765;45.794;24.150;2022-09-03T03:59:34;20.50;94.80
21518;DHT22;61765;45.794;24.150;2022-09-03T04:07:39;20.70;94.70
21518;DHT22;61765;45.794;24.150;2022-09-03T04:15:48;20.60;94.80
21518;DHT22;61765;45.794;24.150;2022-09-03T04:23:55;20.80;94.80
21518;DHT22;61765;45.794;24.150;2022-09-03T04:32:03;21.10;94.20
21518;DHT22;61765;45.794;24.150;2022-09-03T04:40:21;20.80;94.60
21518;DHT22;61765;45.794;24.150;2022-09-03T04:48:30;21.00;94.60
21518;DHT22;61765;45.794;24.150;2022-09-03T04:56:38;21.00;94.10
21518;DHT22;61765;45.794;24.150;2022-09-03T05:04:47;20.80;94.30
21518;DHT22;61765;45.794;24.150;2022-09-03T05:12:58;21.00;94.00
21518;DHT22;61765;45.794;24.150;2022-09-03T05:21:07;20.90;94.30
21518;DHT22;61765;45.794;24.150;2022-09-03T05:29:13;20.90;94.50
21518;DHT22;61765;45.794;24.150;2022-09-03T05:37:21;20.90;94.30
21518;DHT22;61765;45.794;24.150;2022-09-03T05:45:27;21.00;94.20
21518;DHT22;61765;45.794;24.150;2022-09-03T05:53:37;20.90;94.50
21518;DHT22;61765;45.794;24.150;2022-09-03T06:01:44;20.90;94.50
21518;DHT22;61765;45.794;24.150;2022-09-03T06:09:58;20.90;94.40
21518;DHT22;61765;45.794;24.150;2022-09-03T06:18:06;20.80;95.00
21518;DHT22;61765;45.794;24.150;2022-09-03T06:26:14;20.80;95.00
21518;DHT22;61765;45.794;24.150;2022-09-03T06:34:19;20.90;95.10
21518;DHT22;61765;45.794;24.150;2022-09-03T06:42:29;21.30;94.50
21518;DHT22;61765;45.794;24.150;2022-09-03T06:50:35;21.10;94.70
21518;DHT22;61765;45.794;24.150;2022-09-03T06:58:44;21.20;94.90
21518;DHT22;61765;45.794;24.150;2022-09-03T07:06:50;21.40;94.70
21518;DHT22;61765;45.794;24.150;2022-09-03T07:14:58;21.60;94.20
21518;DHT22;61765;45.794;24.150;2022-09-03T07:23:04;21.30;94.90
21518;DHT22;61765;45.794;24.150;2022-09-03T07:31:14;21.90;94.30
21518;DHT22;61765;45.794;24.150;2022-09-03T07:39:20;22.00;94.10
21518;DHT22;61765;45.794;24.150;2022-09-03T07:47:28;22.20;93.90
21518;DHT22;61765;45.794;24.150;2022-09-03T07:55:35;22.00;93.90
21518;DHT22;61765;45.794;24.150;2022-09-03T08:03:46;22.30;93.50
21518;DHT22;61765;45.794;24.150;2022-09-03T08:11:51;23.10;92.50
21518;DHT22;61765;45.794;24.150;2022-09-03T08:19:59;22.60;93.10
21518;DHT22;61765;45.794;24.150;2022-09-03T08:28:05;22.30;93.90
21518;DHT22;61765;45.794;24.150;2022-09-03T08:36:14;23.30;92.80
21518;DHT22;61765;45.794;24.150;2022-09-03T08:44:24;24.00;91.10
21518;DHT22;61765;45.794;24.150;2022-09-03T08:52:35;24.40;90.30
21518;DHT22;61765;45.794;24.150;2022-09-03T09:00:47;25.00;89.70
21518;DHT22;61765;45.794;24.150;2022-09-03T09:09:04;25.50;88.20
21518;DHT22;61765;45.794;24.150;2022-09-03T09:17:28;26.20;87.00
21518;DHT22;61765;45.794;24.150;2022-09-03T09:25:43;26.90;84.30
21518;DHT22;61765;45.794;24.150;2022-09-03T09:33:52;27.10;82.70
21518;DHT22;61765;45.794;24.150;2022-09-03T09:42:04;26.80;83.40
21518;DHT22;61765;45.794;24.150;2022-09-03T09:50:16;26.10;84.20
21518;DHT22;61765;45.794;24.150;2022-09-03T09:58:31;26.10;83.90
21518;DHT22;61765;45.794;24.150;2022-09-03T10:06:37;25.80;85.50
21518;DHT22;61765;45.794;24.150;2022-09-03T10:15:04;25.80;86.20
21518;DHT22;61765;45.794;24.150;2022-09-03T10:23:17;26.20;86.00
21518;DHT22;61765;45.794;24.150;2022-09-03T10:31:41;26.30;86.60
21518;DHT22;61765;45.794;24.150;2022-09-03T10:40:00;28.10;83.40
21518;DHT22;61765;45.794;24.150;2022-09-03T10:48:31;28.40;79.50
21518;DHT22;61765;45.794;24.150;2022-09-03T10:56:50;27.70;80.40
21518;DHT22;61765;45.794;24.150;2022-09-03T11:05:03;26.90;84.20
21518;DHT22;61765;45.794;24.150;2022-09-03T11:13:13;28.40;81.10
21518;DHT22;61765;45.794;24.150;2022-09-03T11:21:24;31.60;75.00
21518;DHT22;61765;45.794;24.150;2022-09-03T11:29:33;32.20;71.10
21518;DHT22;61765;45.794;24.150;2022-09-03T11:37:52;31.90;69.70
21518;DHT22;61765;45.794;24.150;2022-09-03T11:46:03;31.00;70.70
21518;DHT22;61765;45.794;24.150;2022-09-03T11:54:41;29.60;73.20
21518;DHT22;61765;45.794;24.150;2022-09-03T12:02:50;29.00;75.40
21518;DHT22;61765;45.794;24.150;2022-09-03T12:11:12;28.90;77.30
21518;DHT22;61765;45.794;24.150;2022-09-03T12:19:28;33.60;70.90
21518;DHT22;61765;45.794;24.150;2022-09-03T12:27:40;40.60;57.30
21518;DHT22;61765;45.794;24.150;2022-09-03T12:35:56;48.00;44.70
21518;DHT22;61765;45.794;24.150;2022-09-03T12:44:04;45.90;42.80
21518;DHT22;61765;45.794;24.150;2022-09-03T12:52:15;40.90;48.60
21518;DHT22;61765;45.794;24.150;2022-09-03T13:00:25;39.70;48.50
21518;DHT22;61765;45.794;24.150;2022-09-03T13:08:44;34.00;57.40
21518;DHT22;61765;45.794;24.150;2022-09-03T13:25:38;30.70;65.50
21518;DHT22;61765;45.794;24.150;2022-09-03T13:33:49;28.80;71.20
21518;DHT22;61765;45.794;24.150;2022-09-03T13:42:04;29.20;70.60
21518;DHT22;61765;45.794;24.150;2022-09-03T13:50:19;28.80;70.70
21518;DHT22;61765;45.794;24.150;2022-09-03T13:58:30;27.50;74.10
21518;DHT22;61765;45.794;24.150;2022-09-03T14:06:41;27.60;74.20
21518;DHT22;61765;45.794;24.150;2022-09-03T14:14:55;27.70;74.20
21518;DHT22;61765;45.794;24.150;2022-09-03T14:23:17;27.60;75.10
21518;DHT22;61765;45.794;24.150;2022-09-03T14:40:00;26.90;76.20
21518;DHT22;61765;45.794;24.150;2022-09-03T14:48:34;26.60;77.80
21518;DHT22;61765;45.794;24.150;2022-09-03T14:56:49;27.10;76.40
21518;DHT22;61765;45.794;24.150;2022-09-03T15:05:09;27.10;76.10
21518;DHT22;61765;45.794;24.150;2022-09-03T15:13:19;26.90;76.50
21518;DHT22;61765;45.794;24.150;2022-09-03T15:21:39;26.20;79.00
21518;DHT22;61765;45.794;24.150;2022-09-03T15:29:59;25.70;80.70
21518;DHT22;61765;45.794;24.150;2022-09-03T15:38:09;26.00;80.60
21518;DHT22;61765;45.794;24.150;2022-09-03T15:54:59;25.90;80.60
21518;DHT22;61765;45.794;24.150;2022-09-03T16:03:11;25.70;81.40
21518;DHT22;61765;45.794;24.150;2022-09-03T16:11:35;25.70;81.10
21518;DHT22;61765;45.794;24.150;2022-09-03T16:19:47;25.30;84.60
21518;DHT22;61765;45.794;24.150;2022-09-03T16:28:01;24.80;86.40
21518;DHT22;61765;45.794;24.150;2022-09-03T16:36:26;24.00;88.60
21518;DHT22;61765;45.794;24.150;2022-09-03T16:44:42;24.30;88.00
21518;DHT22;61765;45.794;24.150;2022-09-03T16:53:02;24.00;90.00
21518;DHT22;61765;45.794;24.150;2022-09-03T17:01:19;24.00;90.40
21518;DHT22;61765;45.794;24.150;2022-09-03T17:09:37;24.00;90.10
21518;DHT22;61765;45.794;24.150;2022-09-03T17:17:56;24.00;90.50
21518;DHT22;61765;45.794;24.150;2022-09-03T17:26:10;23.80;90.80
21518;DHT22;61765;45.794;24.150;2022-09-03T17:34:34;24.00;90.70
21518;DHT22;61765;45.794;24.150;2022-09-03T17:42:55;24.20;90.70
21518;DHT22;61765;45.794;24.150;2022-09-03T17:51:07;23.80;91.00
21518;DHT22;61765;45.794;24.150;2022-09-03T17:59:23;23.90;90.90
21518;DHT22;61765;45.794;24.150;2022-09-03T18:07:39;24.00;91.30
21518;DHT22;61765;45.794;24.150;2022-09-03T18:15:53;23.70;91.30
21518;DHT22;61765;45.794;24.150;2022-09-03T18:24:03;23.70;91.20
21518;DHT22;61765;45.794;24.150;2022-09-03T18:32:26;23.70;91.30
21518;DHT22;61765;45.794;24.150;2022-09-03T18:40:51;23.80;91.00
21518;DHT22;61765;45.794;24.150;2022-09-03T18:49:19;23.90;90.90
21518;DHT22;61765;45.794;24.150;2022-09-03T18:57:50;23.80;91.00
21518;DHT22;61765;45.794;24.150;2022-09-03T19:06:22;23.80;90.90
21518;DHT22;61765;45.794;24.150;2022-09-03T19:14:47;23.60;91.20
21518;DHT22;61765;45.794;24.150;2022-09-03T19:23:11;23.70;91.20
21518;DHT22;61765;45.794;24.150;2022-09-03T19:31:41;23.70;91.10
21518;DHT22;61765;45.794;24.150;2022-09-03T19:40:29;23.70;91.30
21518;DHT22;61765;45.794;24.150;2022-09-03T19:48:56;23.30;91.70
21518;DHT22;61765;45.794;24.150;2022-09-03T19:57:19;23.40;91.70
21518;DHT22;61765;45.794;24.150;2022-09-03T20:05:37;23.50;91.60
21518;DHT22;61765;45.794;24.150;2022-09-03T20:13:59;23.60;91.40
21518;DHT22;61765;45.794;24.150;2022-09-03T20:22:25;23.80;91.20
21518;DHT22;61765;45.794;24.150;2022-09-03T20:30:41;23.50;91.30
21518;DHT22;61765;45.794;24.150;2022-09-03T20:39:02;23.60;91.40
21518;DHT22;61765;45.794;24.150;2022-09-03T20:55:47;23.70;91.10
21518;DHT22;61765;45.794;24.150;2022-09-03T21:04:08;23.50;91.60
21518;DHT22;61765;45.794;24.150;2022-09-03T21:12:23;23.60;91.40
21518;DHT22;61765;45.794;24.150;2022-09-03T21:20:41;23.70;91.20
21518;DHT22;61765;45.794;24.150;2022-09-03T21:29:03;23.80;91.00
21518;DHT22;61765;45.794;24.150;2022-09-03T21:37:14;23.80;91.10
21518;DHT22;61765;45.794;24.150;2022-09-03T21:45:28;23.90;91.30
21518;DHT22;61765;45.794;24.150;2022-09-03T21:53:39;23.90;91.50
21518;DHT22;61765;45.794;24.150;2022-09-03T22:01:55;23.90;91.50
21518;DHT22;61765;45.794;24.150;2022-09-03T22:10:13;23.90;91.70
21518;DHT22;61765;45.794;24.150;2022-09-03T22:18:25;23.80;91.90
21518;DHT22;61765;45.794;24.150;2022-09-03T22:26:40;23.50;92.50
21518;DHT22;61765;45.794;24.150;2022-09-03T22:43:27;23.20;92.20
21518;DHT22;61765;45.794;24.150;2022-09-03T22:51:45;23.40;92.20
21518;DHT22;61765;45.794;24.150;2022-09-03T23:00:03;23.20;92.10
21518;DHT22;61765;45.794;24.150;2022-09-03T23:08:12;23.10;92.10
21518;DHT22;61765;45.794;24.150;2022-09-03T23:16:29;23.20;91.80
21518;DHT22;61765;45.794;24.150;2022-09-03T23:24:42;23.20;91.60
21518;DHT22;61765;45.794;24.150;2022-09-03T23:32:56;23.20;91.50
21518;DHT22;61765;45.794;24.150;2022-09-03T23:41:06;23.20;91.40
21518;DHT22;61765;45.794;24.150;2022-09-03T23:49:35;23.30;91.30
21518;DHT22;61765;45.794;24.150;2022-09-03T23:57:48;23.20;91.50
